Time;durP1;ratioP1;P1;durP2;ratioP2;P2;SDS_P1;SDS_P2;PMS_P1;PMS_P2;Temp;Humidity;BMP_temperature;BMP_pressure;BME280_temperature;BME280_humidity;BME280_pressure;Samples;Min_cycle;Max_cycle;Signal;HPM_P1;HPM_P2
2022/03/01 00:00:41;;;;;;;14.68;7.70;;;-2.80;99.90;;;;;;2096497;28;20643;-74
2022/03/01 00:01:42;;;;;;;14.83;5.97;;;-2.80;99.90;;;;;;2088490;28;20332;-74
2022/03/01 00:02:44;;;;;;;11.17;6.43;;;-2.80;99.90;;;;;;2096550;28;20211;-74
2022/03/01 00:03:44;;;;;;;10.95;6.85;;;-2.70;99.80;;;;;;2088376;28;20197;-75
2022/03/01 00:04:45;;;;;;;10.77;6.40;;;-2.80;99.50;;;;;;2088232;28;20193;-75
2022/03/01 00:05:46;;;;;;;12.63;6.90;;;-2.80;99.60;;;;;;2096535;28;20165;-75
2022/03/01 00:06:46;;;;;;;12.23;7.50;;;-2.80;99.70;;;;;;2096857;28;20266;-74
2022/03/01 00:07:47;;;;;;;10.33;6.57;;;-2.80;99.90;;;;;;2105514;28;20203;-74
2022/03/01 00:08:48;;;;;;;9.97;5.93;;;-2.90;99.90;;;;;;2096792;28;20263;-74
2022/03/01 00:09:48;;;;;;;13.73;7.60;;;-2.80;99.90;;;;;;2089382;28;20172;-74
2022/03/01 00:10:49;;;;;;;10.93;6.30;;;-2.80;99.90;;;;;;2096730;28;20549;-74
2022/03/01 00:11:50;;;;;;;13.70;6.87;;;-2.80;99.90;;;;;;2096811;28;20180;-74
2022/03/01 00:12:50;;;;;;;12.37;5.77;;;-2.80;99.90;;;;;;2088360;28;20207;-74
2022/03/01 00:13:51;;;;;;;13.37;7.20;;;-2.80;99.90;;;;;;2096979;28;20180;-74
2022/03/01 00:14:52;;;;;;;15.27;7.07;;;-2.80;99.90;;;;;;2097172;28;20527;-74
2022/03/01 00:15:53;;;;;;;12.90;6.77;;;-2.90;99.90;;;;;;2096953;28;20183;-74
2022/03/01 00:16:54;;;;;;;12.00;6.10;;;-2.90;99.90;;;;;;2097307;28;20559;-74
2022/03/01 00:17:54;;;;;;;12.27;7.37;;;-2.90;99.90;;;;;;2097723;28;20198;-73
2022/03/01 00:18:55;;;;;;;12.47;6.83;;;-2.90;99.90;;;;;;2097258;28;20186;-75
2022/03/01 00:19:56;;;;;;;12.57;6.20;;;-2.90;99.80;;;;;;2097360;28;20209;-74
2022/03/01 00:20:56;;;;;;;11.93;6.40;;;-2.90;99.80;;;;;;2096582;28;20217;-74
2022/03/01 00:21:58;;;;;;;14.20;6.90;;;-3.00;99.60;;;;;;2096773;28;20179;-75
2022/03/01 00:22:59;;;;;;;11.50;6.75;;;-3.00;99.80;;;;;;2104930;28;20231;-74
2022/03/01 00:24:00;;;;;;;9.33;5.47;;;-3.00;99.50;;;;;;2097380;28;20201;-74
2022/03/01 00:25:02;;;;;;;10.93;5.80;;;-3.10;99.60;;;;;;2097480;28;20184;-73
2022/03/01 00:26:02;;;;;;;10.55;7.03;;;-3.10;99.90;;;;;;2095942;28;20195;-73
2022/03/01 00:27:03;;;;;;;10.33;6.30;;;-3.10;99.90;;;;;;2088676;28;20544;-74
2022/03/01 00:28:04;;;;;;;9.95;5.10;;;-3.00;99.90;;;;;;2080322;28;20185;-74
2022/03/01 00:29:05;;;;;;;11.63;5.77;;;-3.10;99.90;;;;;;2088498;28;20219;-74
2022/03/01 00:30:07;;;;;;;9.55;6.28;;;-3.10;99.90;;;;;;2098156;28;20188;-74
2022/03/01 00:31:07;;;;;;;11.88;5.35;;;-3.10;99.90;;;;;;2090032;28;20303;-75
2022/03/01 00:32:09;;;;;;;12.00;5.73;;;-3.00;99.90;;;;;;2089820;28;20607;-75
2022/03/01 00:33:11;;;;;;;12.13;6.13;;;-3.00;99.90;;;;;;2098300;28;20195;-75
2022/03/01 00:34:11;;;;;;;10.40;5.65;;;-3.00;99.90;;;;;;2093064;28;20189;-75
2022/03/01 00:35:12;;;;;;;12.83;6.03;;;-3.00;99.90;;;;;;2089433;28;20176;-75
2022/03/01 00:36:13;;;;;;;11.17;6.07;;;-3.10;99.90;;;;;;2090494;28;20172;-74
2022/03/01 00:37:13;;;;;;;11.67;6.47;;;-3.10;99.90;;;;;;2089949;28;20682;-75
2022/03/01 00:38:14;;;;;;;12.20;6.73;;;-3.10;99.90;;;;;;2090110;28;20174;-74
2022/03/01 00:39:15;;;;;;;8.70;5.20;;;-3.10;99.90;;;;;;2090037;28;20893;-74
2022/03/01 00:40:16;;;;;;;10.97;5.60;;;-3.20;99.90;;;;;;2081580;28;20698;-74
2022/03/01 00:41:16;;;;;;;10.57;5.87;;;-3.20;99.90;;;;;;2081532;28;20303;-74
2022/03/01 00:42:17;;;;;;;11.40;5.40;;;-3.30;99.90;;;;;;2089565;28;20208;-74
2022/03/01 00:43:18;;;;;;;10.90;6.53;;;-3.30;99.90;;;;;;2089890;28;20655;-75
2022/03/01 00:44:18;;;;;;;9.57;6.07;;;-3.20;99.90;;;;;;2089680;28;20622;-75
2022/03/01 00:45:19;;;;;;;14.57;6.53;;;-3.20;99.90;;;;;;2097354;28;20187;-75
2022/03/01 00:46:22;;;;;;;12.67;6.60;;;-3.30;99.90;;;;;;2089817;28;20651;-75
2022/03/01 00:47:23;;;;;;;12.77;6.50;;;-3.20;99.90;;;;;;2089652;28;20245;-75
2022/03/01 00:48:24;;;;;;;10.30;6.10;;;-3.20;99.90;;;;;;2089696;28;20787;-74
2022/03/01 00:49:24;;;;;;;14.50;6.30;;;-3.20;99.90;;;;;;2081476;28;20546;-74
2022/03/01 00:50:25;;;;;;;16.20;6.60;;;-3.20;99.90;;;;;;2089657;28;20570;-75
2022/03/01 00:51:28;;;;;;;11.93;5.93;;;-3.30;99.90;;;;;;2089762;28;20181;-75
2022/03/01 00:52:29;;;;;;;10.90;6.30;;;-3.30;99.90;;;;;;2081474;28;20578;-74
2022/03/01 00:53:29;;;;;;;10.82;5.63;;;-3.30;99.90;;;;;;2089769;28;20269;-75
2022/03/01 00:54:30;;;;;;;10.17;5.60;;;-3.30;99.90;;;;;;2089590;28;20179;-75
2022/03/01 00:55:31;;;;;;;14.23;6.50;;;-3.30;99.90;;;;;;2089124;28;20736;-74
2022/03/01 00:56:33;;;;;;;12.80;6.27;;;-3.30;99.90;;;;;;2081422;28;20760;-74
2022/03/01 00:57:34;;;;;;;13.70;7.20;;;-3.40;99.90;;;;;;2089675;28;20258;-75
2022/03/01 00:58:35;;;;;;;16.15;8.35;;;-3.40;99.90;;;;;;2089524;28;20196;-75
2022/03/01 00:59:36;;;;;;;12.43;6.00;;;-3.40;99.90;;;;;;2089765;28;20188;-75
2022/03/01 01:00:36;;;;;;;13.97;7.33;;;-3.40;99.90;;;;;;2090287;28;20714;-75
2022/03/01 01:01:37;;;;;;;17.73;8.73;;;-3.40;99.90;;;;;;2090252;28;20185;-75
2022/03/01 01:02:38;;;;;;;21.67;10.97;;;-3.40;99.90;;;;;;2097633;28;20304;-75
2022/03/01 01:03:39;;;;;;;15.97;9.07;;;-3.50;99.90;;;;;;2089589;28;20174;-75
2022/03/01 01:04:39;;;;;;;15.70;7.87;;;-3.50;99.90;;;;;;2089579;28;20563;-75
2022/03/01 01:05:40;;;;;;;15.03;7.73;;;-3.40;99.90;;;;;;2080648;28;20271;-74
2022/03/01 01:06:41;;;;;;;13.53;7.37;;;-3.40;99.90;;;;;;2081403;28;20181;-75
2022/03/01 01:07:41;;;;;;;15.87;8.97;;;-3.40;99.90;;;;;;2089393;28;20193;-75
2022/03/01 01:08:42;;;;;;;15.23;7.77;;;-3.40;99.90;;;;;;2081273;28;20173;-74
2022/03/01 01:09:43;;;;;;;13.60;7.20;;;-3.40;99.90;;;;;;2081167;28;20186;-75
2022/03/01 01:10:43;;;;;;;12.77;6.70;;;-3.40;99.90;;;;;;2081274;28;20177;-74
2022/03/01 01:11:44;;;;;;;13.93;7.40;;;-3.40;99.90;;;;;;2081247;28;20187;-75
2022/03/01 01:12:45;;;;;;;12.77;6.88;;;-3.40;99.90;;;;;;2081268;28;20191;-74
2022/03/01 01:13:46;;;;;;;13.13;6.18;;;-3.40;99.90;;;;;;2089436;28;20185;-75
2022/03/01 01:14:47;;;;;;;15.23;7.00;;;-3.30;99.90;;;;;;2089612;28;20223;-75
2022/03/01 01:15:48;;;;;;;14.07;7.60;;;-3.40;99.90;;;;;;2088909;28;20191;-75
2022/03/01 01:16:49;;;;;;;14.50;7.55;;;-3.30;99.90;;;;;;2089551;28;20426;-75
2022/03/01 01:17:49;;;;;;;11.53;6.77;;;-3.40;99.90;;;;;;2089613;28;20204;-75
2022/03/01 01:18:50;;;;;;;14.40;7.33;;;-3.40;99.90;;;;;;2089480;28;20186;-75
2022/03/01 01:19:51;;;;;;;11.13;5.73;;;-3.40;99.90;;;;;;2089417;28;20188;-75
2022/03/01 01:20:52;;;;;;;14.33;7.43;;;-3.30;99.90;;;;;;2089549;28;20180;-75
2022/03/01 01:23:12;;;;;;;13.48;7.40;;;-3.30;99.90;;;;;;2083827;28;20177;-75
2022/03/01 01:24:13;;;;;;;13.83;6.67;;;-3.40;99.90;;;;;;2083518;28;20182;-75
2022/03/01 01:25:23;;;;;;;16.87;8.43;;;-3.30;99.90;;;;;;2088940;28;20187;-74
2022/03/01 01:26:24;;;;;;;11.60;6.47;;;-3.30;99.60;;;;;;2089414;28;20199;-74
2022/03/01 01:27:24;;;;;;;14.33;6.93;;;-3.30;99.20;;;;;;2089430;28;20783;-74
2022/03/01 01:28:25;;;;;;;12.27;7.50;;;-3.20;99.30;;;;;;2089343;28;20204;-75
2022/03/01 01:29:26;;;;;;;11.77;6.30;;;-3.20;99.10;;;;;;2089413;28;20203;-74
2022/03/01 01:30:31;;;;;;;11.63;5.87;;;-3.20;98.90;;;;;;2089242;28;20181;-75
2022/03/01 01:31:31;;;;;;;10.73;5.82;;;-3.00;98.60;;;;;;2081854;28;20187;-75
2022/03/01 01:32:32;;;;;;;9.97;5.53;;;-3.00;97.90;;;;;;2081057;28;20194;-74
2022/03/01 01:33:33;;;;;;;9.90;5.07;;;-3.00;97.30;;;;;;2089454;28;20277;-75
2022/03/01 01:34:34;;;;;;;9.10;4.97;;;-2.90;97.20;;;;;;2089168;28;20188;-75
2022/03/01 01:35:35;;;;;;;11.03;6.37;;;-2.90;97.00;;;;;;2088742;28;20265;-75
2022/03/01 01:36:36;;;;;;;10.43;5.40;;;-2.90;96.60;;;;;;2089287;28;20185;-75
2022/03/01 01:37:37;;;;;;;13.73;5.87;;;-2.90;96.60;;;;;;2081078;28;20202;-74
2022/03/01 01:38:37;;;;;;;11.57;6.38;;;-2.90;96.70;;;;;;2081047;28;20185;-75
2022/03/01 01:39:39;;;;;;;13.40;5.07;;;-3.00;97.00;;;;;;2089250;28;20262;-74
2022/03/01 01:40:40;;;;;;;12.85;5.32;;;-3.00;96.50;;;;;;2091205;28;20622;-75
2022/03/01 01:41:40;;;;;;;11.03;5.30;;;-3.00;96.50;;;;;;2096828;28;20208;-74
2022/03/01 01:42:42;;;;;;;9.03;4.87;;;-2.90;96.80;;;;;;2105706;28;20224;-75
2022/03/01 01:43:42;;;;;;;8.15;4.53;;;-2.90;96.30;;;;;;2105930;28;20795;-75
2022/03/01 01:44:44;;;;;;;11.47;5.30;;;-2.90;96.50;;;;;;2097353;28;20266;-75
2022/03/01 01:45:44;;;;;;;8.10;4.88;;;-2.80;95.80;;;;;;2088834;28;20188;-75
2022/03/01 01:46:45;;;;;;;10.83;5.40;;;-2.80;95.90;;;;;;2089103;28;20188;-75
2022/03/01 01:47:47;;;;;;;13.37;6.10;;;-2.70;95.70;;;;;;2089297;28;20223;-75
2022/03/01 01:48:48;;;;;;;11.27;6.35;;;-2.80;95.00;;;;;;2089372;28;20169;-75
2022/03/01 01:49:49;;;;;;;11.63;6.00;;;-2.90;95.50;;;;;;2089271;28;20181;-75
2022/03/01 01:50:49;;;;;;;11.00;5.70;;;-2.90;95.70;;;;;;2089265;28;20184;-75
2022/03/01 01:51:50;;;;;;;14.40;7.33;;;-3.00;95.60;;;;;;2097561;28;20250;-73
2022/03/01 01:52:53;;;;;;;15.73;7.40;;;-3.00;95.70;;;;;;2098099;28;20905;-75
2022/03/01 01:53:54;;;;;;;16.45;8.55;;;-3.10;95.80;;;;;;2097493;28;20180;-75
2022/03/01 01:54:55;;;;;;;20.80;8.30;;;-3.10;96.10;;;;;;2089033;28;20650;-75
2022/03/01 01:55:56;;;;;;;16.33;8.77;;;-3.10;95.90;;;;;;2088738;28;20192;-75
2022/03/01 01:56:57;;;;;;;17.43;6.77;;;-3.20;96.20;;;;;;2097312;28;20644;-75
2022/03/01 01:57:58;;;;;;;15.95;6.10;;;-3.20;96.50;;;;;;2097522;28;20177;-75
2022/03/01 01:58:59;;;;;;;13.50;6.95;;;-3.30;96.50;;;;;;2089208;28;20208;-75
2022/03/01 02:00:01;;;;;;;11.30;6.53;;;-3.30;96.70;;;;;;2097508;28;20579;-75
2022/03/01 02:01:01;;;;;;;11.70;6.43;;;-3.40;97.20;;;;;;2097986;28;20784;-75
2022/03/01 02:02:02;;;;;;;11.07;6.27;;;-3.50;97.80;;;;;;2097400;28;20192;-75
2022/03/01 02:03:03;;;;;;;36.27;12.47;;;-3.50;98.10;;;;;;2097586;28;20654;-75
2022/03/01 02:04:03;;;;;;;35.97;13.43;;;-3.50;98.00;;;;;;2089105;28;20181;-75
2022/03/01 02:05:05;;;;;;;30.50;13.33;;;-3.50;98.30;;;;;;2089064;28;20214;-76
2022/03/01 02:06:05;;;;;;;24.00;11.70;;;-3.50;98.20;;;;;;2088678;28;20192;-75
2022/03/01 02:07:08;;;;;;;27.63;11.77;;;-3.50;98.40;;;;;;2089174;28;20234;-75
2022/03/01 02:08:08;;;;;;;21.42;9.13;;;-3.50;98.20;;;;;;2089278;28;20173;-75
2022/03/01 02:09:09;;;;;;;12.87;7.00;;;-3.50;98.40;;;;;;2097470;28;20180;-75
2022/03/01 02:10:10;;;;;;;13.97;6.80;;;-3.50;98.50;;;;;;2097980;28;20230;-76
2022/03/01 02:11:11;;;;;;;13.18;7.18;;;-3.50;98.30;;;;;;2097475;28;20196;-75
2022/03/01 02:12:11;;;;;;;13.57;6.60;;;-3.50;98.40;;;;;;2097350;28;20179;-75
2022/03/01 02:13:12;;;;;;;11.60;6.60;;;-3.50;98.30;;;;;;2098119;28;20211;-75
2022/03/01 02:14:13;;;;;;;17.13;7.17;;;-3.50;98.00;;;;;;2097975;28;20654;-75
2022/03/01 02:15:16;;;;;;;12.10;7.20;;;-3.50;98.10;;;;;;2096811;28;20667;-75
2022/03/01 02:16:16;;;;;;;12.13;6.70;;;-3.50;98.20;;;;;;2089199;28;20259;-75
2022/03/01 02:17:18;;;;;;;21.20;8.73;;;-3.50;98.20;;;;;;2097463;28;20194;-75
2022/03/01 02:18:19;;;;;;;18.02;8.77;;;-3.60;98.20;;;;;;2097383;28;20646;-75
2022/03/01 02:19:20;;;;;;;19.77;8.65;;;-3.60;98.20;;;;;;2097361;28;20192;-75
2022/03/01 02:20:23;;;;;;;20.53;9.13;;;-3.60;98.10;;;;;;2097204;28;20982;-75
2022/03/01 02:21:24;;;;;;;17.77;8.40;;;-3.60;98.00;;;;;;2089377;28;20198;-75
2022/03/01 02:22:33;;;;;;;19.70;8.60;;;-3.70;98.20;;;;;;2097117;28;20200;-75
2022/03/01 02:23:33;;;;;;;20.35;8.23;;;-3.70;98.70;;;;;;2097343;28;20152;-75
2022/03/01 02:24:35;;;;;;;15.73;7.87;;;-3.70;98.90;;;;;;2089084;28;20264;-75
2022/03/01 02:25:36;;;;;;;17.30;8.50;;;-3.80;98.80;;;;;;2096699;28;20952;-75
2022/03/01 02:26:37;;;;;;;18.20;8.07;;;-3.80;98.70;;;;;;2097202;28;20186;-75
2022/03/01 02:27:39;;;;;;;17.37;8.33;;;-3.80;98.90;;;;;;2089148;28;20683;-75
2022/03/01 02:28:39;;;;;;;18.05;8.07;;;-3.90;98.70;;;;;;2089072;28;20183;-74
2022/03/01 02:29:41;;;;;;;13.50;6.50;;;-3.90;98.70;;;;;;2097321;28;20651;-75
2022/03/01 02:30:41;;;;;;;11.73;6.70;;;-4.00;99.00;;;;;;2097177;28;20267;-74
2022/03/01 02:31:42;;;;;;;16.50;7.27;;;-4.10;99.40;;;;;;2097361;28;20188;-75
2022/03/01 02:32:43;;;;;;;12.57;6.27;;;-4.10;99.90;;;;;;2097737;28;20233;-75
2022/03/01 02:33:44;;;;;;;12.60;5.90;;;-4.00;99.90;;;;;;2097315;28;20183;-75
2022/03/01 02:34:44;;;;;;;12.97;6.60;;;-4.00;99.90;;;;;;2097140;28;20509;-75
2022/03/01 02:35:45;;;;;;;14.33;7.37;;;-4.00;99.90;;;;;;2097361;28;20176;-75
2022/03/01 02:36:46;;;;;;;11.23;5.60;;;-3.90;99.90;;;;;;2097772;28;20754;-74
2022/03/01 02:37:47;;;;;;;10.90;5.60;;;-3.90;99.90;;;;;;2097139;28;20322;-75
2022/03/01 02:38:48;;;;;;;9.63;5.68;;;-3.90;99.90;;;;;;2088985;28;20183;-74
2022/03/01 02:39:49;;;;;;;10.43;5.43;;;-3.80;99.80;;;;;;2089035;28;20215;-75
2022/03/01 02:40:49;;;;;;;9.07;5.10;;;-3.80;99.60;;;;;;2088942;28;20201;-75
2022/03/01 02:41:50;;;;;;;10.47;5.90;;;-3.80;99.20;;;;;;2088647;28;20192;-75
2022/03/01 02:42:51;;;;;;;12.97;5.93;;;-3.80;99.40;;;;;;2097037;28;21044;-74
2022/03/01 02:43:52;;;;;;;11.10;5.93;;;-3.80;99.30;;;;;;2097220;28;20184;-75
2022/03/01 02:44:52;;;;;;;11.57;6.77;;;-3.80;99.00;;;;;;2097098;28;20179;-74
2022/03/01 02:45:53;;;;;;;11.00;5.33;;;-3.90;98.80;;;;;;2096608;28;20267;-75
2022/03/01 02:46:54;;;;;;;10.80;6.30;;;-3.90;98.90;;;;;;2097027;28;20167;-75
2022/03/01 02:47:54;;;;;;;11.17;5.73;;;-3.90;99.20;;;;;;2089202;28;20240;-75
2022/03/01 02:48:55;;;;;;;9.20;5.70;;;-3.90;99.00;;;;;;2097027;28;20715;-74
2022/03/01 02:49:56;;;;;;;10.87;5.73;;;-3.90;99.50;;;;;;2097714;28;20237;-75
2022/03/01 02:50:56;;;;;;;11.33;5.67;;;-3.90;99.60;;;;;;2097114;28;20198;-74
2022/03/01 02:51:57;;;;;;;17.03;6.73;;;-3.90;99.40;;;;;;2097142;28;20183;-74
2022/03/01 02:52:58;;;;;;;11.67;5.37;;;-4.00;99.60;;;;;;2097702;28;20180;-74
2022/03/01 02:53:58;;;;;;;9.37;5.80;;;-4.00;99.50;;;;;;2097647;28;20249;-74
2022/03/01 02:54:59;;;;;;;11.37;6.80;;;-4.00;99.60;;;;;;2097787;28;20186;-75
2022/03/01 02:56:00;;;;;;;13.50;5.20;;;-4.00;99.40;;;;;;2096496;28;20179;-74
2022/03/01 02:57:01;;;;;;;14.18;6.40;;;-4.00;99.40;;;;;;2097047;28;20186;-75
2022/03/01 02:58:02;;;;;;;10.32;6.00;;;-4.10;99.70;;;;;;2097627;28;20308;-75
2022/03/01 02:59:03;;;;;;;11.03;5.87;;;-4.10;99.90;;;;;;2097131;28;20187;-75
2022/03/01 03:00:08;;;;;;;10.93;5.90;;;-4.10;99.90;;;;;;2096979;28;20697;-74
2022/03/01 03:01:08;;;;;;;10.05;5.88;;;-4.10;99.90;;;;;;2097825;28;20267;-74
2022/03/01 03:02:12;;;;;;;10.53;5.70;;;-4.00;99.90;;;;;;2097614;28;20180;-75
2022/03/01 03:03:13;;;;;;;11.73;5.63;;;-4.00;99.90;;;;;;2097690;28;20255;-74
2022/03/01 03:04:13;;;;;;;13.30;6.32;;;-4.00;99.90;;;;;;2096976;28;20180;-74
2022/03/01 03:05:14;;;;;;;8.73;5.27;;;-4.00;99.60;;;;;;2087889;28;20239;-75
2022/03/01 03:06:16;;;;;;;10.33;5.50;;;-4.00;99.40;;;;;;2096972;28;20221;-75
2022/03/01 03:07:17;;;;;;;9.70;5.35;;;-4.00;99.20;;;;;;2096893;28;20192;-74
2022/03/01 03:08:17;;;;;;;13.40;6.70;;;-4.00;99.20;;;;;;2096941;28;20542;-75
2022/03/01 03:09:18;;;;;;;13.77;7.03;;;-4.00;99.30;;;;;;2097109;28;20184;-75
2022/03/01 03:10:18;;;;;;;13.03;6.53;;;-4.00;99.40;;;;;;2096830;28;20230;-74
2022/03/01 03:11:19;;;;;;;13.67;7.20;;;-4.00;99.50;;;;;;2096974;28;20172;-75
2022/03/01 03:12:20;;;;;;;12.73;6.10;;;-4.00;99.40;;;;;;2088619;28;20169;-75
2022/03/01 03:13:21;;;;;;;12.33;5.93;;;-4.10;99.40;;;;;;2088616;28;20188;-74
2022/03/01 03:14:22;;;;;;;13.63;6.87;;;-4.20;99.70;;;;;;2096688;28;20203;-74
2022/03/01 03:15:22;;;;;;;13.50;6.03;;;-4.20;99.90;;;;;;2096157;28;20742;-74
2022/03/01 03:16:23;;;;;;;12.63;6.47;;;-4.30;99.90;;;;;;2096848;28;20179;-74
2022/03/01 03:17:23;;;;;;;13.17;5.30;;;-4.20;99.90;;;;;;2080302;28;20201;-74
2022/03/01 03:18:24;;;;;;;10.67;6.03;;;-4.30;99.90;;;;;;2088598;28;20826;-74
2022/03/01 03:19:25;;;;;;;10.77;5.63;;;-4.20;99.90;;;;;;2097560;28;20255;-74
2022/03/01 03:20:25;;;;;;;10.47;5.20;;;-4.10;99.90;;;;;;2104998;28;20278;-75
2022/03/01 03:21:26;;;;;;;11.00;5.97;;;-4.20;99.90;;;;;;2096943;28;20329;-74
2022/03/01 03:22:27;;;;;;;9.60;5.63;;;-4.10;99.90;;;;;;2096718;28;20791;-75
2022/03/01 03:23:28;;;;;;;11.63;5.37;;;-4.20;99.70;;;;;;2097536;28;20274;-75
2022/03/01 03:24:29;;;;;;;10.30;5.90;;;-4.20;99.90;;;;;;2097408;28;20176;-75
2022/03/01 03:25:30;;;;;;;11.77;5.55;;;-4.20;99.60;;;;;;2096268;28;20585;-75
2022/03/01 03:26:31;;;;;;;15.20;6.53;;;-4.20;99.80;;;;;;2096636;28;20682;-75
2022/03/01 03:27:31;;;;;;;10.47;5.00;;;-4.20;99.60;;;;;;2097400;28;20275;-75
2022/03/01 03:28:32;;;;;;;10.30;5.37;;;-4.20;99.50;;;;;;2097343;28;20183;-75
2022/03/01 03:29:33;;;;;;;10.37;5.50;;;-4.20;99.80;;;;;;2097469;28;20175;-74
2022/03/01 03:30:33;;;;;;;10.10;5.60;;;-4.20;99.60;;;;;;2097257;28;20650;-74
2022/03/01 03:31:40;;;;;;;16.67;6.97;;;-4.30;99.60;;;;;;2097030;28;20552;-75
2022/03/01 03:32:41;;;;;;;11.38;5.85;;;-4.20;99.70;;;;;;2096795;28;20175;-74
2022/03/01 03:33:41;;;;;;;9.87;5.20;;;-4.30;99.80;;;;;;2096823;28;20180;-75
2022/03/01 03:34:42;;;;;;;10.07;5.83;;;-4.40;99.80;;;;;;2088446;28;20254;-74
2022/03/01 03:35:43;;;;;;;10.00;5.37;;;-4.40;99.90;;;;;;2087757;28;20190;-74
2022/03/01 03:36:44;;;;;;;9.65;5.32;;;-4.50;99.90;;;;;;2096756;28;20190;-76
2022/03/01 03:37:45;;;;;;;11.20;5.47;;;-4.50;99.90;;;;;;2096886;28;20592;-74
2022/03/01 03:38:45;;;;;;;14.25;5.80;;;-4.60;99.90;;;;;;2096801;28;20213;-75
2022/03/01 03:39:46;;;;;;;11.33;5.73;;;-4.50;99.90;;;;;;2088425;28;20609;-75
2022/03/01 03:40:47;;;;;;;15.10;6.07;;;-4.50;99.90;;;;;;2088551;28;20190;-75
2022/03/01 03:41:48;;;;;;;11.23;6.53;;;-4.50;99.90;;;;;;2088379;28;20177;-75
2022/03/01 03:42:48;;;;;;;10.90;5.40;;;-4.50;99.90;;;;;;2088474;28;20216;-75
2022/03/01 03:43:49;;;;;;;10.87;5.33;;;-4.50;99.90;;;;;;2096696;28;20615;-75
2022/03/01 03:44:50;;;;;;;12.47;5.93;;;-4.50;99.90;;;;;;2105218;28;20275;-74
2022/03/01 03:45:50;;;;;;;9.07;5.10;;;-4.60;99.90;;;;;;2096699;28;20176;-75
2022/03/01 03:46:51;;;;;;;12.23;5.70;;;-4.60;99.90;;;;;;2097392;28;20210;-75
2022/03/01 03:47:52;;;;;;;10.23;5.50;;;-4.60;99.90;;;;;;2097565;28;20287;-74
2022/03/01 03:48:53;;;;;;;10.83;5.30;;;-4.60;99.90;;;;;;2088443;28;20338;-74
2022/03/01 03:49:54;;;;;;;8.87;4.80;;;-4.60;99.90;;;;;;2080289;28;20986;-74
2022/03/01 03:50:54;;;;;;;11.13;5.50;;;-4.60;99.90;;;;;;2088563;28;20211;-74
2022/03/01 03:51:55;;;;;;;10.77;6.13;;;-4.60;99.90;;;;;;2088470;28;20214;-74
2022/03/01 03:52:56;;;;;;;9.50;5.13;;;-4.60;99.90;;;;;;2096854;28;20203;-74
2022/03/01 03:53:56;;;;;;;9.17;5.03;;;-4.70;99.90;;;;;;2096834;28;20184;-75
2022/03/01 03:54:57;;;;;;;9.30;4.77;;;-4.70;99.90;;;;;;2097430;28;20225;-75
2022/03/01 03:55:58;;;;;;;11.20;6.07;;;-4.70;99.90;;;;;;2096801;28;20698;-75
2022/03/01 03:56:59;;;;;;;9.23;5.90;;;-4.70;99.90;;;;;;2096812;28;20658;-75
2022/03/01 03:58:00;;;;;;;10.82;5.38;;;-4.70;99.90;;;;;;2088429;28;20703;-75
2022/03/01 03:59:00;;;;;;;9.43;4.77;;;-4.70;99.90;;;;;;2096863;28;20403;-75
2022/03/01 04:00:06;;;;;;;11.37;5.43;;;-4.70;99.90;;;;;;2096596;28;20188;-75
2022/03/01 04:01:08;;;;;;;9.57;5.40;;;-4.60;99.90;;;;;;2089179;28;20172;-74
2022/03/01 04:02:09;;;;;;;8.52;4.32;;;-4.60;99.90;;;;;;2096736;28;20194;-75
2022/03/01 04:03:10;;;;;;;9.07;4.85;;;-4.70;99.90;;;;;;2096683;28;20241;-74
2022/03/01 04:04:11;;;;;;;11.37;4.50;;;-4.70;99.90;;;;;;2096087;28;20265;-74
2022/03/01 04:05:13;;;;;;;10.97;5.60;;;-4.70;99.90;;;;;;2095978;28;20271;-74
2022/03/01 04:06:14;;;;;;;10.48;5.28;;;-4.70;99.90;;;;;;2088442;28;20259;-75
2022/03/01 04:07:15;;;;;;;9.33;5.27;;;-4.70;99.90;;;;;;2088347;28;20277;-76
2022/03/01 04:08:16;;;;;;;9.80;5.17;;;-4.60;99.90;;;;;;2088334;28;20169;-75
2022/03/01 04:09:17;;;;;;;10.18;4.80;;;-4.60;99.90;;;;;;2088407;28;20172;-75
2022/03/01 04:10:18;;;;;;;6.80;4.50;;;-4.60;99.90;;;;;;2088260;28;20181;-75
2022/03/01 04:11:18;;;;;;;12.27;5.73;;;-4.60;99.90;;;;;;2096650;28;20179;-75
2022/03/01 04:12:19;;;;;;;10.30;5.50;;;-4.60;99.90;;;;;;2096512;28;20176;-75
2022/03/01 04:13:20;;;;;;;11.57;5.20;;;-4.60;99.90;;;;;;2096702;28;20211;-75
2022/03/01 04:14:20;;;;;;;9.43;4.80;;;-4.60;99.90;;;;;;2096501;28;20178;-75
2022/03/01 04:15:21;;;;;;;10.13;5.63;;;-4.70;99.90;;;;;;2087565;28;20176;-75
2022/03/01 04:16:22;;;;;;;10.67;5.60;;;-4.70;99.90;;;;;;2096568;28;20217;-75
2022/03/01 04:17:22;;;;;;;9.90;5.00;;;-4.80;99.90;;;;;;2096639;28;20716;-75
2022/03/01 04:18:23;;;;;;;10.83;4.87;;;-4.80;99.90;;;;;;2096767;28;20180;-74
2022/03/01 04:19:24;;;;;;;11.00;5.77;;;-4.80;99.90;;;;;;2097206;28;20175;-75
2022/03/01 04:20:24;;;;;;;12.77;6.20;;;-4.80;99.90;;;;;;2097252;28;20171;-74
2022/03/01 04:21:25;;;;;;;10.33;5.07;;;-4.90;99.90;;;;;;2096515;28;20183;-75
2022/03/01 04:22:26;;;;;;;10.52;5.70;;;-5.00;99.90;;;;;;2096514;28;20180;-75
2022/03/01 04:23:27;;;;;;;9.17;4.93;;;-5.00;99.90;;;;;;2088085;28;20180;-75
2022/03/01 04:24:28;;;;;;;7.60;4.72;;;-5.10;99.90;;;;;;2088420;28;20175;-75
2022/03/01 04:25:29;;;;;;;9.77;5.37;;;-5.10;99.90;;;;;;2095812;28;20176;-74
2022/03/01 04:26:29;;;;;;;10.10;5.17;;;-5.00;99.90;;;;;;2096630;28;20174;-74
2022/03/01 04:27:31;;;;;;;13.50;5.50;;;-5.00;99.90;;;;;;2096489;28;20244;-74
2022/03/01 04:28:31;;;;;;;15.05;5.55;;;-5.00;99.90;;;;;;2097279;28;20182;-75
2022/03/01 04:29:32;;;;;;;10.60;5.10;;;-5.00;99.90;;;;;;2096455;28;20275;-75
2022/03/01 04:30:33;;;;;;;8.97;5.37;;;-5.00;99.90;;;;;;2096628;28;20172;-75
2022/03/01 04:31:34;;;;;;;8.18;4.80;;;-5.00;99.90;;;;;;2096490;28;20180;-75
2022/03/01 04:32:35;;;;;;;9.33;5.73;;;-5.00;99.90;;;;;;2096520;28;20195;-75
2022/03/01 04:33:36;;;;;;;8.47;5.17;;;-5.00;99.90;;;;;;2096500;28;20191;-75
2022/03/01 04:34:37;;;;;;;8.33;4.97;;;-5.10;99.90;;;;;;2096623;28;20183;-75
2022/03/01 04:35:37;;;;;;;8.38;4.63;;;-5.10;99.90;;;;;;2087115;28;20175;-75
2022/03/01 04:36:38;;;;;;;9.93;4.93;;;-5.10;99.90;;;;;;2096661;28;20714;-75
2022/03/01 04:37:41;;;;;;;8.07;4.37;;;-5.10;99.90;;;;;;2096284;28;20195;-75
2022/03/01 04:38:42;;;;;;;8.48;4.60;;;-5.10;99.90;;;;;;2088576;28;20267;-75
2022/03/01 04:39:43;;;;;;;8.18;4.35;;;-5.10;99.90;;;;;;2096416;28;20219;-75
2022/03/01 04:40:44;;;;;;;8.53;4.93;;;-5.20;99.90;;;;;;2079927;28;20673;-75
2022/03/01 04:41:44;;;;;;;11.87;5.57;;;-5.20;99.90;;;;;;2088097;28;20599;-75
2022/03/01 04:42:45;;;;;;;10.73;5.13;;;-5.20;99.90;;;;;;2096443;28;20544;-74
2022/03/01 04:43:46;;;;;;;12.40;5.00;;;-5.10;99.90;;;;;;2096426;28;20187;-75
2022/03/01 04:44:47;;;;;;;10.03;6.60;;;-5.10;99.90;;;;;;2096541;28;20237;-74
2022/03/01 04:45:47;;;;;;;8.40;4.63;;;-5.10;99.90;;;;;;2095815;28;20172;-75
2022/03/01 04:46:48;;;;;;;10.23;6.03;;;-5.10;99.90;;;;;;2096500;28;20179;-75
2022/03/01 04:47:49;;;;;;;8.60;4.83;;;-5.10;99.90;;;;;;2096536;28;20579;-74
2022/03/01 04:48:49;;;;;;;8.10;4.77;;;-5.00;99.90;;;;;;2096551;28;20224;-75
2022/03/01 04:49:50;;;;;;;8.40;4.90;;;-5.00;99.90;;;;;;2097028;28;20179;-75
2022/03/01 04:50:51;;;;;;;11.80;5.87;;;-5.00;99.90;;;;;;2088171;28;20189;-74
2022/03/01 04:51:52;;;;;;;10.82;5.30;;;-5.00;99.90;;;;;;2088125;28;20176;-75
2022/03/01 04:52:53;;;;;;;8.23;4.57;;;-5.10;99.90;;;;;;2096519;28;20195;-75
2022/03/01 04:53:53;;;;;;;10.17;5.77;;;-5.20;99.90;;;;;;2096468;28;20180;-74
2022/03/01 04:54:54;;;;;;;9.67;5.43;;;-5.20;99.90;;;;;;2096533;28;20191;-74
2022/03/01 04:55:55;;;;;;;12.43;5.90;;;-5.20;99.90;;;;;;2088308;28;20226;-75
2022/03/01 04:56:55;;;;;;;11.30;5.83;;;-5.10;99.90;;;;;;2088833;28;20188;-75
2022/03/01 04:57:56;;;;;;;13.17;5.40;;;-5.10;99.90;;;;;;2097398;28;20184;-75
2022/03/01 04:58:57;;;;;;;9.27;5.10;;;-5.20;99.90;;;;;;2097664;28;20191;-75
2022/03/01 04:59:58;;;;;;;15.17;5.40;;;-5.20;99.90;;;;;;2097812;28;20188;-75
2022/03/01 05:01:00;;;;;;;9.45;5.90;;;-5.20;99.90;;;;;;2096876;28;20658;-74
2022/03/01 05:02:01;;;;;;;11.18;5.43;;;-5.20;99.90;;;;;;2097030;28;20190;-75
2022/03/01 05:03:03;;;;;;;9.25;5.95;;;-5.20;99.90;;;;;;2097108;28;20208;-75
2022/03/01 05:04:04;;;;;;;14.98;6.72;;;-5.20;99.90;;;;;;2096952;28;20187;-74
2022/03/01 05:05:10;;;;;;;14.52;7.35;;;-5.20;99.90;;;;;;2096764;28;20217;-75
2022/03/01 05:06:11;;;;;;;17.92;7.57;;;-5.30;99.90;;;;;;2097662;28;20165;-75
2022/03/01 05:07:11;;;;;;;14.33;6.80;;;-5.30;99.90;;;;;;2105199;28;20189;-75
2022/03/01 05:08:12;;;;;;;10.37;5.97;;;-5.30;99.90;;;;;;2097222;28;20213;-75
2022/03/01 05:09:13;;;;;;;10.67;4.97;;;-5.30;99.90;;;;;;2096935;28;20182;-75
2022/03/01 05:10:19;;;;;;;10.97;5.53;;;-5.30;99.90;;;;;;2096988;28;20175;-74
2022/03/01 05:11:21;;;;;;;11.73;5.95;;;-5.20;99.90;;;;;;2089518;28;20153;-75
2022/03/01 05:12:22;;;;;;;11.98;6.35;;;-5.20;99.90;;;;;;2096943;28;20217;-74
2022/03/01 05:13:22;;;;;;;12.73;6.07;;;-5.20;99.90;;;;;;2096816;28;20654;-74
2022/03/01 05:14:23;;;;;;;10.47;5.40;;;-5.20;99.90;;;;;;2096852;28;20179;-75
2022/03/01 05:15:26;;;;;;;12.77;6.87;;;-5.20;99.90;;;;;;2096853;28;20182;-75